Etusivu
METAR-TAF:

METAR-TAF

Lentoasemat :

Wausau, Wisconsin, Yhdysvallat

Leveyspiiri: 44-55-43N, Pituuspiiri: 089-37-36W, korkeus merenpinnasta: 366 m

Tämänhetkinen sää

Tämä raportti tehtiin 57 minuuttia sitten, kello 09.54 UTC
Tuuli 5 kn luoteesta
Lämpötila -18°C
Kosteus 71%
Ilmanpaine 1031 hPa
Näkyvyys: 16.1 km
selkeää

METAR: KAUW 190954Z AUTO 31005KT 10SM CLR M18/M22 A3044 RMK AO2 SLP340 T11781222 $

Aika: 04:51 (10:51 UTC)

Sääennuste

Tämä raportti tehtiin 5 tuntia ja 31 minuuttia sitten, kello 05.20 UTC
Ennuste voimassa 19. päivästä klo 06 UTC - 20. päivään klo 06 UTC
Tuuli 5 kn luoteesta
Näkyvyys: 10 km
selkeää

TAF: KAUW 190520Z 1906/2006 31005KT P6SM SKC

Säähavainnot ja -ennusteet yli 4000 lentoasemalta (METAR- ja TAF-raportit).

Käytössä olevat sääasemat on merkitty karttaan keltaisilla ja punaisilla pisteillä.

Aseta hiiri pisteen päälle nähdäksesi sääaseman nimen.

Klikkaa sitten nähdäksesi säähavainnot ja -ennusteet.

Kartan vaihtaminen: klikkaa mustalla rastilla varustettuja vihreitä pisteitä, niin voit zoomata sisään; viivalla varustettua vihreää pistettä, niin voit zoomata ulos tai vihreitä nuolia, niin pääset viereisille kartoille.


METAR-TAF: